Benoit, Wisconsin
Current Conditions -  °F | °C
As of 6:53 PM on Monday 20 Oct 2014 (Local Time) from KASX Reporting Station
Overcast Overcast  
Wind Chill: 47°   Ceiling: 4300
Heat Index: 49°   Visibility: 10mi
Dew Point: 39°   Wind: 6mph
Humidity: 69%   Direction: 350°N
Pressure: 30.07"   Gusts: NA
Location:  46.5°N, 91.08°W
Report Text: KASX 202353Z AUTO 35005KT 10SM OVC043 09/04 A3007 RMK AO2 SLP187 T00940039 10128 20094 53022
Loading
Personal Weather Stations






























Interactive Weather Map
Tropical Storm Tracking
New forecast layout! Learn more

10-Day Weather Forecast

Advertisements
Track Severe Weather on mobile